createdAt,value
2023-03-26T00:01:38.740Z,1.65
2023-03-26T00:04:06.923Z,1.70
2023-03-26T00:06:38.945Z,1.52
2023-03-26T00:09:08.123Z,1.42
2023-03-26T00:11:34.899Z,1.13
2023-03-26T00:14:02.678Z,1.17
2023-03-26T00:16:31.567Z,1.33
2023-03-26T00:18:59.716Z,1.33
2023-03-26T00:21:28.895Z,1.25
2023-03-26T00:24:11.786Z,1.50
2023-03-26T00:26:38.859Z,1.08
2023-03-26T00:29:06.768Z,1.50
2023-03-26T00:36:29.734Z,1.40
2023-03-26T00:38:56.283Z,1.20
2023-03-26T00:41:30.986Z,1.08
2023-03-26T00:43:59.762Z,1.38
2023-03-26T00:46:29.142Z,1.25
2023-03-26T00:48:58.980Z,1.05
2023-03-26T00:51:27.161Z,1.00
2023-03-26T00:56:20.527Z,0.90
2023-03-26T00:58:50.196Z,0.80
2023-03-26T01:01:21.525Z,0.68
2023-03-26T01:04:04.724Z,0.98
2023-03-26T01:06:37.719Z,0.85
2023-03-26T01:09:18.773Z,1.05
2023-03-26T01:11:45.870Z,1.05
2023-03-26T01:14:16.724Z,0.88
2023-03-26T01:17:04.197Z,0.90
2023-03-26T01:19:45.188Z,0.77
2023-03-26T01:22:16.785Z,0.85
2023-03-26T01:24:46.096Z,0.82
2023-03-26T01:27:31.961Z,0.80
2023-03-26T01:30:12.110Z,0.73
2023-03-26T01:35:48.501Z,0.60
2023-03-26T01:38:49.887Z,0.70
2023-03-26T01:41:41.146Z,0.60
2023-03-26T01:44:17.096Z,1.13
2023-03-26T01:46:44.716Z,0.70
2023-03-26T01:49:13.249Z,0.70
2023-03-26T01:51:42.875Z,0.50
2023-03-26T01:54:16.932Z,0.93
2023-03-26T01:59:18.656Z,0.68
2023-03-26T02:01:48.313Z,0.47
2023-03-26T02:04:20.832Z,0.50
2023-03-26T02:07:05.742Z,0.65
2023-03-26T02:09:40.627Z,0.70
2023-03-26T02:12:08.219Z,0.65
2023-03-26T02:14:35.923Z,0.52
2023-03-26T02:17:02.753Z,0.70
2023-03-26T02:19:29.887Z,0.50
2023-03-26T02:21:59.744Z,0.73
2023-03-26T02:24:26.382Z,0.80
2023-03-26T02:26:53.351Z,0.65
2023-03-26T02:29:20.542Z,0.73
2023-03-26T02:31:51.080Z,0.60
2023-03-26T02:34:17.688Z,0.75
2023-03-26T02:36:44.191Z,0.90
2023-03-26T02:39:12.009Z,0.57
2023-03-26T02:41:38.921Z,0.95
2023-03-26T02:44:05.848Z,1.38
2023-03-26T02:46:33.777Z,1.20
2023-03-26T02:53:54.765Z,1.13
2023-03-26T02:56:21.698Z,1.20
2023-03-26T02:58:48.405Z,0.90
2023-03-26T03:01:18.340Z,0.88
2023-03-26T03:03:47.293Z,0.90
2023-03-26T03:06:17.134Z,0.82
2023-03-26T03:08:46.042Z,0.82
2023-03-26T03:11:18.365Z,0.85
2023-03-26T03:13:45.912Z,0.85
2023-03-26T03:16:12.525Z,0.75
2023-03-26T03:18:39.224Z,0.90
2023-03-26T03:21:06.547Z,0.88
2023-03-26T03:23:33.316Z,0.80
2023-03-26T03:25:59.826Z,0.60
2023-03-26T03:28:26.683Z,0.90
2023-03-26T03:30:53.285Z,0.55
2023-03-26T03:33:20.706Z,1.00
2023-03-26T03:35:50.701Z,0.75
2023-03-26T03:38:17.802Z,0.80
2023-03-26T03:40:44.874Z,0.80
2023-03-26T03:43:11.556Z,0.55
2023-03-26T03:45:38.039Z,0.88
2023-03-26T03:48:04.903Z,0.60
2023-03-26T03:50:34.285Z,0.93
2023-03-26T03:53:02.953Z,0.65
2023-03-26T03:55:30.051Z,0.75
2023-03-26T03:57:58.325Z,0.63
2023-03-26T04:00:24.904Z,1.00
2023-03-26T04:02:54.312Z,0.90
2023-03-26T04:05:21.290Z,0.95
2023-03-26T04:07:47.808Z,0.80
2023-03-26T04:10:16.248Z,0.60
2023-03-26T04:12:42.738Z,0.75
2023-03-26T04:15:09.528Z,0.80
2023-03-26T04:17:42.773Z,0.70
2023-03-26T04:20:15.827Z,0.70
2023-03-26T04:22:43.641Z,1.00
2023-03-26T04:25:11.702Z,0.65
2023-03-26T04:27:41.573Z,0.60
2023-03-26T04:30:14.517Z,0.85
2023-03-26T04:32:42.942Z,0.73
2023-03-26T04:35:14.294Z,1.00
2023-03-26T04:37:42.143Z,0.95
2023-03-26T04:40:14.346Z,1.35
2023-03-26T04:42:46.364Z,0.95
2023-03-26T04:45:17.977Z,1.20
2023-03-26T04:47:46.562Z,1.52
2023-03-26T04:50:13.463Z,1.35
2023-03-26T04:52:41.297Z,1.50
2023-03-26T04:55:25.691Z,1.80
2023-03-26T04:57:57.089Z,1.48
2023-03-26T05:00:23.839Z,2.00
2023-03-26T05:02:50.570Z,1.02
2023-03-26T05:05:17.824Z,1.73
2023-03-26T05:07:44.336Z,1.92
2023-03-26T05:10:15.164Z,2.00
2023-03-26T05:12:41.892Z,1.70
2023-03-26T05:15:10.816Z,1.58
2023-03-26T05:17:41.811Z,1.55
2023-03-26T05:20:20.833Z,1.77
2023-03-26T05:22:49.148Z,1.75
2023-03-26T05:25:17.275Z,1.80
2023-03-26T05:27:44.232Z,1.48
2023-03-26T05:30:14.857Z,1.30
2023-03-26T05:32:41.722Z,2.20
2023-03-26T05:35:09.361Z,1.90
2023-03-26T05:37:37.718Z,1.75
2023-03-26T05:40:11.410Z,1.75
2023-03-26T05:42:39.337Z,1.73
2023-03-26T05:45:08.266Z,2.78
2023-03-26T05:47:35.150Z,2.30
2023-03-26T05:50:02.017Z,2.78
2023-03-26T05:52:28.807Z,2.42
2023-03-26T05:54:55.332Z,2.17
2023-03-26T05:57:23.891Z,2.05
2023-03-26T05:59:50.782Z,2.42
2023-03-26T06:02:17.299Z,2.45
2023-03-26T06:04:45.954Z,2.38
2023-03-26T06:07:12.790Z,2.50
2023-03-26T06:09:40.094Z,2.30
2023-03-26T06:12:08.214Z,2.38
2023-03-26T06:14:35.417Z,3.63
2023-03-26T06:17:02.235Z,3.15
2023-03-26T06:19:28.943Z,3.35
2023-03-26T06:21:55.630Z,2.97
2023-03-26T06:24:22.109Z,2.80
2023-03-26T06:26:48.685Z,3.00
2023-03-26T06:29:16.031Z,3.05
2023-03-26T06:31:42.602Z,2.22
2023-03-26T06:34:09.273Z,1.95
2023-03-26T06:36:35.816Z,2.22
2023-03-26T06:39:07.876Z,2.22
2023-03-26T06:41:35.322Z,1.90
2023-03-26T06:44:01.908Z,2.08
2023-03-26T06:46:28.444Z,1.83
2023-03-26T06:48:54.959Z,1.30
2023-03-26T06:51:21.466Z,1.77
2023-03-26T06:53:48.037Z,1.83
2023-03-26T06:56:14.585Z,1.83
2023-03-26T06:58:41.291Z,1.70
2023-03-26T07:01:07.812Z,1.55
2023-03-26T07:03:34.394Z,1.85
2023-03-26T07:06:00.902Z,1.63
2023-03-26T07:08:27.482Z,1.60
2023-03-26T07:10:54.217Z,1.27
2023-03-26T07:13:20.953Z,1.20
2023-03-26T07:15:49.059Z,1.35
2023-03-26T07:18:15.623Z,1.27
2023-03-26T07:20:43.767Z,1.17
2023-03-26T07:23:11.938Z,1.40
2023-03-26T07:25:38.845Z,1.40
2023-03-26T07:28:29.772Z,1.30
2023-03-26T07:31:20.730Z,1.33
2023-03-26T07:34:05.618Z,1.35
2023-03-26T07:36:53.733Z,1.15
2023-03-26T07:39:43.532Z,1.33
2023-03-26T07:42:51.709Z,1.45
2023-03-26T07:45:43.463Z,0.90
2023-03-26T07:48:40.754Z,1.30
2023-03-26T07:51:08.139Z,1.20
2023-03-26T07:53:35.016Z,0.82
2023-03-26T07:56:17.781Z,0.73
2023-03-26T07:58:50.018Z,0.82
2023-03-26T08:01:45.384Z,1.17
2023-03-26T08:04:23.772Z,1.13
2023-03-26T08:07:15.995Z,0.73
2023-03-26T08:10:05.656Z,0.90
2023-03-26T08:12:51.048Z,0.80
2023-03-26T08:15:38.060Z,1.23
2023-03-26T08:18:27.338Z,0.73
2023-03-26T08:21:00.884Z,0.70
2023-03-26T08:23:50.860Z,0.90
2023-03-26T08:26:45.429Z,0.75
2023-03-26T08:29:36.612Z,0.80
2023-03-26T08:32:05.263Z,0.70
2023-03-26T08:34:31.802Z,0.80
2023-03-26T08:36:58.294Z,0.60
2023-03-26T08:39:24.974Z,0.45
2023-03-26T08:42:00.499Z,0.45
2023-03-26T08:44:57.945Z,0.75
2023-03-26T08:47:42.688Z,0.88
2023-03-26T08:50:30.423Z,0.70
2023-03-26T08:53:21.685Z,0.70
2023-03-26T08:56:08.743Z,0.60
2023-03-26T08:59:03.039Z,0.68
2023-03-26T09:01:54.084Z,0.50
2023-03-26T09:04:58.823Z,0.55
2023-03-26T09:07:28.058Z,0.60
2023-03-26T09:10:14.496Z,0.70
2023-03-26T09:13:05.697Z,0.40
2023-03-26T09:15:37.005Z,0.60
2023-03-26T09:18:12.433Z,0.90
2023-03-26T09:20:54.096Z,0.57
2023-03-26T09:23:52.672Z,0.40
2023-03-26T09:26:25.339Z,0.43
2023-03-26T09:29:17.583Z,0.32
2023-03-26T09:32:18.204Z,0.50
2023-03-26T09:34:50.792Z,0.35
2023-03-26T09:37:56.855Z,0.28
2023-03-26T09:40:53.288Z,0.40
2023-03-26T09:43:32.023Z,0.50
2023-03-26T09:46:26.178Z,0.38
2023-03-26T09:49:11.828Z,0.50
2023-03-26T09:52:07.073Z,0.43
2023-03-26T09:54:48.259Z,0.70
2023-03-26T09:58:08.891Z,0.40
2023-03-26T10:00:41.249Z,0.40
2023-03-26T10:03:26.875Z,0.43
2023-03-26T10:05:59.494Z,0.50
2023-03-26T10:08:45.859Z,0.40
2023-03-26T10:11:47.774Z,0.30
2023-03-26T10:14:14.223Z,0.40
2023-03-26T10:16:55.619Z,0.50
2023-03-26T10:19:47.541Z,0.32
2023-03-26T10:22:31.228Z,0.50
2023-03-26T10:25:17.581Z,0.30
2023-03-26T10:30:45.349Z,0.50
2023-03-26T10:33:35.295Z,0.25
2023-03-26T10:36:19.626Z,0.40
2023-03-26T10:39:35.927Z,0.50
2023-03-26T10:42:20.620Z,0.50
2023-03-26T10:44:59.103Z,0.50
2023-03-26T10:47:40.344Z,0.50
2023-03-26T10:50:36.978Z,0.40
2023-03-26T10:53:23.347Z,0.60
2023-03-26T10:55:58.391Z,0.40
2023-03-26T10:58:29.537Z,0.45
2023-03-26T11:01:24.102Z,0.30
2023-03-26T11:03:54.276Z,0.30
2023-03-26T11:06:36.257Z,0.35
2023-03-26T11:09:25.263Z,0.30
2023-03-26T11:11:51.725Z,0.40
2023-03-26T11:14:34.460Z,0.50
2023-03-26T11:17:14.566Z,0.60
2023-03-26T11:20:05.702Z,0.20
2023-03-26T11:22:53.468Z,0.20
2023-03-26T11:25:43.709Z,0.20
2023-03-26T11:29:03.424Z,0.22
2023-03-26T11:31:57.135Z,0.17
2023-03-26T11:34:31.230Z,0.20
2023-03-26T11:39:35.501Z,0.20
2023-03-26T11:42:11.278Z,0.35
2023-03-26T11:44:54.377Z,0.30
2023-03-26T11:47:28.891Z,0.50
2023-03-26T11:49:59.444Z,0.38
2023-03-26T11:52:26.997Z,0.43
2023-03-26T11:54:54.143Z,0.30
2023-03-26T11:57:26.300Z,0.40
2023-03-26T12:00:17.626Z,0.20
2023-03-26T12:02:46.164Z,0.30
2023-03-26T12:05:18.533Z,0.20
2023-03-26T12:07:59.454Z,0.25
2023-03-26T12:10:42.855Z,0.20
2023-03-26T12:13:34.969Z,0.20
2023-03-26T12:16:09.084Z,0.17
2023-03-26T12:21:12.659Z,0.13
2023-03-26T12:23:51.097Z,0.10
2023-03-26T12:26:20.793Z,0.10
2023-03-26T12:28:50.000Z,0.20
2023-03-26T12:31:19.164Z,0.20
2023-03-26T12:34:04.265Z,0.30
2023-03-26T12:36:33.367Z,0.30
2023-03-26T12:39:17.073Z,0.10
2023-03-26T12:44:47.373Z,0.20
2023-03-26T12:44:59.121Z,0.10
2023-03-26T12:47:58.312Z,0.10
2023-03-26T12:50:34.455Z,0.17
2023-03-26T12:53:19.134Z,0.10
2023-03-26T12:55:54.526Z,0.05
2023-03-26T12:58:41.086Z,0.10
2023-03-26T13:01:18.518Z,0.20
2023-03-26T13:04:07.091Z,0.17
2023-03-26T13:07:00.780Z,0.00
2023-03-26T13:09:31.803Z,0.10
2023-03-26T13:12:01.040Z,0.10
2023-03-26T13:14:54.562Z,0.10
2023-03-26T13:17:33.016Z,0.10
2023-03-26T13:20:13.193Z,0.10
2023-03-26T13:25:24.090Z,1.55
2023-03-26T13:28:06.957Z,1.48
2023-03-26T13:30:51.432Z,1.95
2023-03-26T13:33:28.459Z,1.17
2023-03-26T13:36:26.364Z,1.00
2023-03-26T13:39:17.758Z,1.00
2023-03-26T13:42:09.816Z,1.23
2023-03-26T13:45:20.792Z,1.00
2023-03-26T13:47:50.791Z,1.27
2023-03-26T13:50:37.265Z,1.13
2023-03-26T13:53:18.360Z,0.95
2023-03-26T13:55:55.799Z,1.10
2023-03-26T13:58:34.636Z,0.93
2023-03-26T14:01:09.977Z,1.10
2023-03-26T14:04:07.777Z,1.10
2023-03-26T14:06:57.953Z,1.00
2023-03-26T14:09:33.563Z,0.88
2023-03-26T14:12:28.837Z,0.68
2023-03-26T14:15:01.706Z,1.08
2023-03-26T14:17:38.532Z,1.02
2023-03-26T14:20:17.470Z,0.73
2023-03-26T14:23:18.197Z,0.60
2023-03-26T14:25:47.626Z,0.82
2023-03-26T14:28:58.347Z,0.80
2023-03-26T14:34:30.063Z,0.98
2023-03-26T14:37:18.518Z,1.20
2023-03-26T14:40:21.590Z,1.70
2023-03-26T14:43:09.531Z,1.80
2023-03-26T14:46:13.242Z,1.83
2023-03-26T14:49:05.354Z,1.73
2023-03-26T14:51:53.366Z,2.05
2023-03-26T14:54:25.578Z,1.83
2023-03-26T14:56:58.715Z,1.60
2023-03-26T14:59:31.378Z,1.60
2023-03-26T15:02:23.079Z,1.92
2023-03-26T15:04:49.612Z,1.60
2023-03-26T15:07:51.975Z,1.48
2023-03-26T15:10:57.880Z,1.60
2023-03-26T15:13:52.416Z,1.48
2023-03-26T15:16:45.451Z,1.80
2023-03-26T15:19:24.473Z,3.80
2023-03-26T15:22:06.046Z,4.28
2023-03-26T15:24:45.350Z,6.78
2023-03-26T15:27:17.748Z,4.53
2023-03-26T15:30:21.496Z,5.32
2023-03-26T15:33:22.692Z,4.55
2023-03-26T15:36:16.934Z,4.15
2023-03-26T15:38:58.841Z,4.10
2023-03-26T15:41:50.447Z,3.90
2023-03-26T15:44:38.333Z,4.50
2023-03-26T15:47:34.962Z,3.30
2023-03-26T15:50:08.190Z,3.72
2023-03-26T15:53:09.570Z,3.28
2023-03-26T15:55:52.712Z,3.30
2023-03-26T15:58:27.260Z,3.92
2023-03-26T16:01:06.105Z,4.20
2023-03-26T16:03:44.547Z,3.40
2023-03-26T16:06:35.001Z,3.53
2023-03-26T16:09:23.173Z,2.95
2023-03-26T16:12:15.840Z,3.25
2023-03-26T16:14:48.314Z,3.00
2023-03-26T16:17:23.459Z,2.63
2023-03-26T16:19:52.945Z,2.50
2023-03-26T16:22:44.897Z,2.80
2023-03-26T16:25:26.512Z,2.30
2023-03-26T16:28:12.997Z,2.60
2023-03-26T16:30:42.121Z,2.30
2023-03-26T16:33:14.022Z,2.22
2023-03-26T16:36:02.088Z,2.38
2023-03-26T16:39:05.635Z,2.25
2023-03-26T16:41:50.108Z,2.08
2023-03-26T16:44:34.986Z,1.70
2023-03-26T16:47:15.535Z,2.00
2023-03-26T16:50:10.688Z,1.67
2023-03-26T16:53:15.633Z,1.75
2023-03-26T16:56:08.832Z,1.55
2023-03-26T16:58:46.760Z,1.80
2023-03-26T17:01:19.314Z,1.25
2023-03-26T17:03:58.855Z,1.70
2023-03-26T17:06:49.258Z,1.65
2023-03-26T17:09:44.062Z,1.20
2023-03-26T17:12:28.223Z,1.52
2023-03-26T17:15:11.944Z,1.75
2023-03-26T17:17:49.628Z,1.35
2023-03-26T17:20:33.129Z,2.03
2023-03-26T17:23:51.026Z,1.58
2023-03-26T17:26:48.356Z,1.75
2023-03-26T17:29:48.083Z,1.40
2023-03-26T17:32:15.193Z,1.77
2023-03-26T17:34:52.414Z,1.27
2023-03-26T17:37:22.049Z,1.80
2023-03-26T17:39:51.515Z,1.10
2023-03-26T17:42:28.830Z,1.58
2023-03-26T17:45:03.576Z,1.65
2023-03-26T17:47:32.985Z,1.63
2023-03-26T17:50:15.858Z,1.33
2023-03-26T17:52:56.430Z,1.63
2023-03-26T17:55:30.514Z,1.98
2023-03-26T18:00:51.047Z,1.50
2023-03-26T18:03:29.587Z,1.00
2023-03-26T18:06:06.429Z,0.88
2023-03-26T18:08:47.748Z,1.35
2023-03-26T18:11:26.343Z,1.52
2023-03-26T18:14:16.656Z,1.70
2023-03-26T18:16:53.015Z,1.70
2023-03-26T18:19:22.775Z,1.60
2023-03-26T18:21:58.150Z,1.45
2023-03-26T18:24:29.250Z,1.30
2023-03-26T18:27:02.166Z,1.55
2023-03-26T18:29:31.909Z,1.63
2023-03-26T18:32:22.081Z,1.55
2023-03-26T18:34:59.140Z,1.60
2023-03-26T18:37:31.739Z,1.30
2023-03-26T18:40:16.645Z,1.67
2023-03-26T18:42:48.869Z,2.33
2023-03-26T18:45:28.943Z,1.50
2023-03-26T18:48:23.045Z,1.50
2023-03-26T18:51:05.997Z,1.50
2023-03-26T18:53:50.117Z,1.38
2023-03-26T18:56:35.610Z,1.40
2023-03-26T18:59:05.262Z,1.60
2023-03-26T19:01:35.268Z,1.65
2023-03-26T19:04:06.032Z,1.55
2023-03-26T19:06:38.377Z,1.10
2023-03-26T19:09:16.358Z,1.50
2023-03-26T19:11:57.054Z,1.55
2023-03-26T19:14:28.640Z,1.38
2023-03-26T19:17:01.110Z,1.20
2023-03-26T19:19:36.930Z,1.52
2023-03-26T19:22:10.631Z,1.77
2023-03-26T19:24:37.475Z,1.58
2023-03-26T19:27:04.690Z,1.60
2023-03-26T19:29:36.210Z,1.58
2023-03-26T19:32:16.249Z,1.77
2023-03-26T19:34:44.890Z,1.50
2023-03-26T19:37:18.941Z,1.58
2023-03-26T19:40:07.789Z,1.20
2023-03-26T19:42:43.793Z,1.20
2023-03-26T19:45:17.968Z,1.20
2023-03-26T19:47:50.148Z,1.30
2023-03-26T19:50:28.723Z,1.40
2023-03-26T19:55:56.625Z,1.50
2023-03-26T19:58:23.679Z,1.40
2023-03-26T20:00:50.391Z,1.13
2023-03-26T20:03:21.985Z,1.48
2023-03-26T20:05:48.603Z,1.30
2023-03-26T20:08:16.568Z,1.20
2023-03-26T20:13:16.865Z,1.90
2023-03-26T20:16:07.469Z,1.50
2023-03-26T20:18:34.842Z,1.15
2023-03-26T20:21:01.353Z,1.20
2023-03-26T20:23:28.998Z,1.17
2023-03-26T20:25:55.946Z,1.20
2023-03-26T20:28:24.444Z,1.02
2023-03-26T20:30:54.264Z,1.35
2023-03-26T20:33:25.561Z,1.10
2023-03-26T20:35:56.765Z,0.93
2023-03-26T20:38:36.704Z,0.90
2023-03-26T20:41:07.087Z,0.75
2023-03-26T20:43:33.582Z,0.63
2023-03-26T20:46:00.633Z,0.60
2023-03-26T20:48:27.190Z,0.80
2023-03-26T20:50:54.076Z,0.68
2023-03-26T20:53:20.942Z,0.60
2023-03-26T20:55:48.280Z,0.45
2023-03-26T20:58:18.164Z,0.47
2023-03-26T21:01:00.481Z,0.82
2023-03-26T21:03:27.202Z,0.40
2023-03-26T21:05:53.768Z,0.40
2023-03-26T21:08:20.595Z,0.50
2023-03-26T21:10:47.739Z,0.50
2023-03-26T21:13:20.044Z,0.52
2023-03-26T21:15:46.942Z,0.70
2023-03-26T21:18:13.849Z,0.30
2023-03-26T21:20:41.949Z,0.38
2023-03-26T21:23:31.279Z,0.60
2023-03-26T21:26:17.310Z,0.45
2023-03-26T21:28:47.722Z,0.35
2023-03-26T21:31:20.795Z,0.50
2023-03-26T21:33:49.350Z,0.50
2023-03-26T21:36:18.108Z,0.60
2023-03-26T21:38:45.535Z,0.57
2023-03-26T21:41:24.350Z,0.60
2023-03-26T21:43:51.472Z,0.45
2023-03-26T21:46:18.750Z,0.40
2023-03-26T21:48:45.688Z,0.60
2023-03-26T21:51:14.791Z,0.57
2023-03-26T21:53:42.984Z,0.57
2023-03-26T21:56:33.988Z,0.50
2023-03-26T21:59:23.687Z,0.50
2023-03-26T22:02:14.934Z,0.40
2023-03-26T22:04:56.415Z,0.50
2023-03-26T22:07:34.104Z,0.50
2023-03-26T22:10:00.605Z,0.45
2023-03-26T22:12:27.084Z,0.68
2023-03-26T22:14:53.550Z,0.43
2023-03-26T22:17:20.080Z,0.45
2023-03-26T22:19:46.563Z,0.57
2023-03-26T22:22:13.057Z,0.47
2023-03-26T22:24:39.526Z,0.47
2023-03-26T22:27:07.806Z,0.60
2023-03-26T22:29:34.310Z,0.57
2023-03-26T22:32:00.883Z,0.50
2023-03-26T22:34:27.391Z,0.60
2023-03-26T22:36:53.908Z,0.70
2023-03-26T22:39:20.410Z,0.40
2023-03-26T22:41:46.906Z,0.35
2023-03-26T22:44:20.302Z,0.40
2023-03-26T22:46:49.398Z,0.40
2023-03-26T22:49:16.787Z,0.55
2023-03-26T22:51:43.574Z,0.50
2023-03-26T22:54:10.310Z,0.77
2023-03-26T22:56:37.261Z,0.50
2023-03-26T22:59:03.964Z,0.60
2023-03-26T23:01:30.582Z,0.57
2023-03-26T23:03:57.925Z,0.45
2023-03-26T23:06:25.108Z,0.40
2023-03-26T23:08:51.705Z,0.60
2023-03-26T23:11:20.374Z,0.35
2023-03-26T23:13:47.902Z,0.40
2023-03-26T23:16:16.173Z,0.40
2023-03-26T23:18:43.936Z,0.40
2023-03-26T23:21:19.547Z,0.43
2023-03-26T23:23:47.501Z,0.40
2023-03-26T23:26:14.926Z,0.30
2023-03-26T23:28:41.763Z,0.30
2023-03-26T23:31:10.161Z,0.50
2023-03-26T23:33:38.997Z,0.30
2023-03-26T23:36:10.779Z,0.40
2023-03-26T23:38:44.040Z,0.30
2023-03-26T23:41:15.118Z,0.50
2023-03-26T23:43:53.768Z,0.30
2023-03-26T23:46:26.034Z,0.20
2023-03-26T23:48:53.004Z,0.30
2023-03-26T23:51:20.955Z,0.25
2023-03-26T23:53:49.231Z,0.55
2023-03-26T23:56:16.294Z,0.30
2023-03-26T23:58:42.995Z,0.45
